createdAt,value
2023-02-11T00:00:52.822Z,966.7
2023-02-11T00:01:54.890Z,966.8
2023-02-11T00:02:57.157Z,966.8
2023-02-11T00:03:59.196Z,966.7
2023-02-11T00:05:01.040Z,966.7
2023-02-11T00:06:02.884Z,966.7
2023-02-11T00:07:04.737Z,966.7
2023-02-11T00:08:06.587Z,966.7
2023-02-11T00:09:09.091Z,966.7
2023-02-11T00:10:10.865Z,966.6
2023-02-11T00:11:12.758Z,966.6
2023-02-11T00:12:14.600Z,966.7
2023-02-11T00:13:16.658Z,966.7
2023-02-11T00:14:18.627Z,966.7
2023-02-11T00:15:20.448Z,966.7
2023-02-11T00:16:22.647Z,966.7
2023-02-11T00:17:24.678Z,966.7
2023-02-11T00:18:26.518Z,966.7
2023-02-11T00:19:28.479Z,966.7
2023-02-11T00:20:30.431Z,966.7
2023-02-11T00:21:32.268Z,966.7
2023-02-11T00:22:34.123Z,966.7
2023-02-11T00:23:35.971Z,966.7
2023-02-11T00:24:37.923Z,966.6
2023-02-11T00:25:39.787Z,966.7
2023-02-11T00:26:41.744Z,966.7
2023-02-11T00:27:43.577Z,966.7
2023-02-11T00:28:45.532Z,966.7
2023-02-11T00:29:47.500Z,966.6
2023-02-11T00:30:49.732Z,966.6
2023-02-11T00:31:52.126Z,966.6
2023-02-11T00:32:54.364Z,966.6
2023-02-11T00:33:56.317Z,966.6
2023-02-11T00:34:58.109Z,966.6
2023-02-11T00:36:00.017Z,966.6
2023-02-11T00:37:02.328Z,966.6
2023-02-11T00:38:04.646Z,966.7
2023-02-11T00:39:09.352Z,966.6
2023-02-11T00:40:11.137Z,966.7
2023-02-11T00:41:13.062Z,966.7
2023-02-11T00:42:14.874Z,966.7
2023-02-11T00:43:16.764Z,966.7
2023-02-11T00:44:18.624Z,966.7
2023-02-11T00:45:20.488Z,966.7
2023-02-11T00:46:22.687Z,966.7
2023-02-11T00:47:24.770Z,966.7
2023-02-11T00:48:29.234Z,966.6
2023-02-11T00:49:31.120Z,966.5
2023-02-11T00:50:32.974Z,966.6
2023-02-11T00:51:34.921Z,966.6
2023-02-11T00:52:36.782Z,966.6
2023-02-11T00:53:38.642Z,966.6
2023-02-11T00:54:40.497Z,966.6
2023-02-11T00:55:42.437Z,966.6
2023-02-11T00:56:44.811Z,966.5
2023-02-11T00:57:46.668Z,966.5
2023-02-11T00:58:48.591Z,966.5
2023-02-11T00:59:50.461Z,966.5
2023-02-11T01:00:52.421Z,966.5
2023-02-11T01:01:54.353Z,966.5
2023-02-11T01:02:56.197Z,966.4
2023-02-11T01:03:58.065Z,966.5
2023-02-11T01:05:00.315Z,966.5
2023-02-11T01:06:02.159Z,966.5
2023-02-11T01:07:04.013Z,966.6
2023-02-11T01:08:05.876Z,966.5
2023-02-11T01:09:07.671Z,966.5
2023-02-11T01:10:09.580Z,966.5
2023-02-11T01:11:11.416Z,966.5
2023-02-11T01:12:13.284Z,966.5
2023-02-11T01:13:15.128Z,966.5
2023-02-11T01:14:16.956Z,966.5
2023-02-11T01:15:18.786Z,966.4
2023-02-11T01:16:20.968Z,966.5
2023-02-11T01:17:23.028Z,966.4
2023-02-11T01:18:24.878Z,966.4
2023-02-11T01:19:27.013Z,966.4
2023-02-11T01:20:28.895Z,966.4
2023-02-11T01:21:30.725Z,966.4
2023-02-11T01:22:32.687Z,966.4
2023-02-11T01:23:34.631Z,966.4
2023-02-11T01:24:36.389Z,966.4
2023-02-11T01:25:38.438Z,966.4
2023-02-11T01:26:40.289Z,966.4
2023-02-11T01:27:42.051Z,966.4
2023-02-11T01:28:43.927Z,966.4
2023-02-11T01:29:45.743Z,966.4
2023-02-11T01:30:47.743Z,966.4
2023-02-11T01:31:50.063Z,966.4
2023-02-11T01:32:52.016Z,966.4
2023-02-11T01:33:53.851Z,966.4
2023-02-11T01:34:55.703Z,966.4
2023-02-11T01:35:57.659Z,966.4
2023-02-11T01:36:59.503Z,966.4
2023-02-11T01:38:01.584Z,966.4
2023-02-11T01:39:03.381Z,966.4
2023-02-11T01:40:05.259Z,966.4
2023-02-11T01:41:07.108Z,966.4
2023-02-11T01:42:09.077Z,966.4
2023-02-11T01:43:11.008Z,966.4
2023-02-11T01:44:12.868Z,966.4
2023-02-11T01:45:14.717Z,966.4
2023-02-11T01:46:16.817Z,966.4
2023-02-11T01:47:18.717Z,966.4
2023-02-11T01:48:20.561Z,966.4
2023-02-11T01:49:22.747Z,966.3
2023-02-11T01:50:24.582Z,966.4
2023-02-11T01:51:26.552Z,966.4
2023-02-11T01:52:28.395Z,966.4
2023-02-11T01:53:30.240Z,966.4
2023-02-11T01:54:32.117Z,966.3
2023-02-11T01:55:33.926Z,966.3
2023-02-11T01:56:35.792Z,966.4
2023-02-11T01:57:37.530Z,966.3
2023-02-11T01:58:39.382Z,966.3
2023-02-11T01:59:41.183Z,966.3
2023-02-11T02:00:43.101Z,966.3
2023-02-11T02:01:45.069Z,966.3
2023-02-11T02:02:46.977Z,966.3
2023-02-11T02:03:48.977Z,966.3
2023-02-11T02:04:51.096Z,966.3
2023-02-11T02:05:53.453Z,966.3
2023-02-11T02:06:55.207Z,966.3
2023-02-11T02:07:57.056Z,966.3
2023-02-11T02:08:58.827Z,966.3
2023-02-11T02:10:00.780Z,966.3
2023-02-11T02:11:02.620Z,966.3
2023-02-11T02:12:04.466Z,966.3
2023-02-11T02:13:06.296Z,966.3
2023-02-11T02:14:08.156Z,966.2
2023-02-11T02:15:10.002Z,966.2
2023-02-11T02:16:12.099Z,966.3
2023-02-11T02:17:14.108Z,966.3
2023-02-11T02:18:15.991Z,966.3
2023-02-11T02:19:17.738Z,966.3
2023-02-11T02:20:19.562Z,966.3
2023-02-11T02:21:21.314Z,966.4
2023-02-11T02:22:23.163Z,966.3
2023-02-11T02:23:25.128Z,966.3
2023-02-11T02:24:27.294Z,966.3
2023-02-11T02:25:29.034Z,966.3
2023-02-11T02:26:30.977Z,966.3
2023-02-11T02:27:32.912Z,966.3
2023-02-11T02:28:35.018Z,966.2
2023-02-11T02:29:36.862Z,966.3
2023-02-11T02:30:38.688Z,966.3
2023-02-11T02:31:40.768Z,966.3
2023-02-11T02:32:42.686Z,966.3
2023-02-11T02:33:47.424Z,966.3
2023-02-11T02:34:49.225Z,966.3
2023-02-11T02:35:51.979Z,966.3
2023-02-11T02:36:53.870Z,966.3
2023-02-11T02:37:55.711Z,966.3
2023-02-11T02:38:57.664Z,966.3
2023-02-11T02:39:59.518Z,966.3
2023-02-11T02:41:01.552Z,966.3
2023-02-11T02:42:03.556Z,966.2
2023-02-11T02:43:05.365Z,966.3
2023-02-11T02:44:07.227Z,966.3
2023-02-11T02:45:09.071Z,966.3
2023-02-11T02:46:11.033Z,966.3
2023-02-11T02:47:13.085Z,966.3
2023-02-11T02:48:15.040Z,966.3
2023-02-11T02:49:17.008Z,966.3
2023-02-11T02:50:18.840Z,966.3
2023-02-11T02:51:20.706Z,966.3
2023-02-11T02:52:22.545Z,966.2
2023-02-11T02:53:24.501Z,966.3
2023-02-11T02:54:26.427Z,966.3
2023-02-11T02:55:28.309Z,966.3
2023-02-11T02:56:30.122Z,966.3
2023-02-11T02:57:32.095Z,966.3
2023-02-11T02:58:34.067Z,966.3
2023-02-11T02:59:35.920Z,966.3
2023-02-11T03:00:37.870Z,966.4
2023-02-11T03:01:39.705Z,966.4
2023-02-11T03:02:41.550Z,966.4
2023-02-11T03:03:44.039Z,966.4
2023-02-11T03:04:46.203Z,966.4
2023-02-11T03:05:48.921Z,966.4
2023-02-11T03:06:51.341Z,966.4
2023-02-11T03:07:53.168Z,966.4
2023-02-11T03:08:55.031Z,966.4
2023-02-11T03:09:56.968Z,966.4
2023-02-11T03:10:58.832Z,966.4
2023-02-11T03:12:00.666Z,966.4
2023-02-11T03:13:05.042Z,966.4
2023-02-11T03:14:06.813Z,966.3
2023-02-11T03:15:08.676Z,966.3
2023-02-11T03:16:10.786Z,966.3
2023-02-11T03:17:12.896Z,966.3
2023-02-11T03:18:14.734Z,966.4
2023-02-11T03:19:16.593Z,966.4
2023-02-11T03:20:18.553Z,966.4
2023-02-11T03:21:20.552Z,966.4
2023-02-11T03:22:22.340Z,966.4
2023-02-11T03:23:24.350Z,966.4
2023-02-11T03:24:26.244Z,966.4
2023-02-11T03:25:27.987Z,966.4
2023-02-11T03:26:29.749Z,966.4
2023-02-11T03:27:31.518Z,966.3
2023-02-11T03:28:33.760Z,966.3
2023-02-11T03:29:35.808Z,966.3
2023-02-11T03:30:37.654Z,966.3
2023-02-11T03:31:40.045Z,966.3
2023-02-11T03:32:42.286Z,966.3
2023-02-11T03:33:44.214Z,966.3
2023-02-11T03:34:46.065Z,966.3
2023-02-11T03:35:48.805Z,966.3
2023-02-11T03:36:51.281Z,966.3
2023-02-11T03:37:53.164Z,966.3
2023-02-11T03:38:55.111Z,966.3
2023-02-11T03:39:57.578Z,966.3
2023-02-11T03:40:59.435Z,966.3
2023-02-11T03:42:01.291Z,966.3
2023-02-11T03:43:03.138Z,966.3
2023-02-11T03:44:05.040Z,966.3
2023-02-11T03:45:06.927Z,966.3
2023-02-11T03:46:09.057Z,966.3
2023-02-11T03:47:10.929Z,966.4
2023-02-11T03:48:12.899Z,966.3
2023-02-11T03:49:14.766Z,966.3
2023-02-11T03:50:16.613Z,966.3
2023-02-11T03:51:18.469Z,966.3
2023-02-11T03:52:20.285Z,966.3
2023-02-11T03:53:22.148Z,966.3
2023-02-11T03:54:23.990Z,966.3
2023-02-11T03:55:25.846Z,966.3
2023-02-11T03:56:27.788Z,966.2
2023-02-11T03:57:29.765Z,966.2
2023-02-11T03:58:31.688Z,966.2
2023-02-11T03:59:33.543Z,966.2
2023-02-11T04:00:35.378Z,966.2
2023-02-11T04:01:37.219Z,966.2
2023-02-11T04:02:39.210Z,966.2
2023-02-11T04:03:41.048Z,966.2
2023-02-11T04:04:42.999Z,966.2
2023-02-11T04:05:44.955Z,966.3
2023-02-11T04:06:46.932Z,966.3
2023-02-11T04:07:48.782Z,966.2
2023-02-11T04:08:50.624Z,966.3
2023-02-11T04:09:52.466Z,966.2
2023-02-11T04:10:54.257Z,966.3
2023-02-11T04:11:56.104Z,966.3
2023-02-11T04:12:58.209Z,966.3
2023-02-11T04:14:00.092Z,966.3
2023-02-11T04:15:01.926Z,966.3
2023-02-11T04:16:03.946Z,966.3
2023-02-11T04:17:05.899Z,966.3
2023-02-11T04:18:07.872Z,966.3
2023-02-11T04:19:09.664Z,966.3
2023-02-11T04:20:11.454Z,966.3
2023-02-11T04:21:13.333Z,966.3
2023-02-11T04:22:15.294Z,966.3
2023-02-11T04:23:17.247Z,966.3
2023-02-11T04:24:19.124Z,966.3
2023-02-11T04:25:20.948Z,966.3
2023-02-11T04:26:22.676Z,966.3
2023-02-11T04:27:27.544Z,966.3
2023-02-11T04:28:29.628Z,966.3
2023-02-11T04:29:31.606Z,966.3
2023-02-11T04:30:33.467Z,966.3
2023-02-11T04:31:35.418Z,966.3
2023-02-11T04:32:37.248Z,966.3
2023-02-11T04:33:39.094Z,966.3
2023-02-11T04:34:40.941Z,966.3
2023-02-11T04:35:42.695Z,966.3
2023-02-11T04:36:44.551Z,966.3
2023-02-11T04:37:46.416Z,966.3
2023-02-11T04:38:48.251Z,966.3
2023-02-11T04:39:50.110Z,966.2
2023-02-11T04:40:51.960Z,966.3
2023-02-11T04:41:56.662Z,966.2
2023-02-11T04:42:58.521Z,966.2
2023-02-11T04:44:00.464Z,966.2
2023-02-11T04:45:02.319Z,966.2
2023-02-11T04:46:04.430Z,966.2
2023-02-11T04:47:06.395Z,966.1
2023-02-11T04:48:08.283Z,966.2
2023-02-11T04:49:10.048Z,966.2
2023-02-11T04:50:11.900Z,966.2
2023-02-11T04:51:13.836Z,966.2
2023-02-11T04:52:15.681Z,966.2
2023-02-11T04:53:17.559Z,966.2
2023-02-11T04:54:19.407Z,966.1
2023-02-11T04:55:21.233Z,966.2
2023-02-11T04:56:23.191Z,966.2
2023-02-11T04:57:25.033Z,966.2
2023-02-11T04:58:26.971Z,966.2
2023-02-11T04:59:28.825Z,966.2
2023-02-11T05:00:30.553Z,966.1
2023-02-11T05:01:32.603Z,966.1
2023-02-11T05:02:34.644Z,966.2
2023-02-11T05:03:36.485Z,966.2
2023-02-11T05:04:38.400Z,966.2
2023-02-11T05:05:40.234Z,966.2
2023-02-11T05:06:42.057Z,966.1
2023-02-11T05:07:43.846Z,966.1
2023-02-11T05:08:48.581Z,966.1
2023-02-11T05:09:50.410Z,966
2023-02-11T05:10:52.247Z,966.1
2023-02-11T05:11:54.030Z,966.1
2023-02-11T05:12:56.525Z,966.1
2023-02-11T05:13:58.534Z,966
2023-02-11T05:15:00.357Z,966
2023-02-11T05:16:02.224Z,966
2023-02-11T05:17:04.388Z,966.1
2023-02-11T05:18:06.249Z,966.1
2023-02-11T05:19:08.074Z,966
2023-02-11T05:20:09.863Z,966.1
2023-02-11T05:21:11.680Z,966
2023-02-11T05:22:13.528Z,966
2023-02-11T05:23:15.860Z,966
2023-02-11T05:24:17.876Z,966
2023-02-11T05:25:19.690Z,966
2023-02-11T05:26:21.667Z,966
2023-02-11T05:27:23.990Z,966
2023-02-11T05:28:26.002Z,966
2023-02-11T05:29:28.015Z,966
2023-02-11T05:30:30.034Z,966
2023-02-11T05:31:31.931Z,966.1
2023-02-11T05:32:33.832Z,966.1
2023-02-11T05:33:35.832Z,966.1
2023-02-11T05:34:37.575Z,966
2023-02-11T05:35:39.413Z,966.1
2023-02-11T05:36:41.270Z,966.1
2023-02-11T05:37:43.226Z,966.1
2023-02-11T05:38:45.068Z,966
2023-02-11T05:39:47.145Z,966
2023-02-11T05:40:48.977Z,966
2023-02-11T05:41:50.900Z,966
2023-02-11T05:42:52.784Z,966
2023-02-11T05:43:54.623Z,966
2023-02-11T05:44:56.483Z,966
2023-02-11T05:45:58.258Z,966
2023-02-11T05:47:00.108Z,966
2023-02-11T05:48:02.030Z,966
2023-02-11T05:49:03.872Z,966
2023-02-11T05:50:05.736Z,966.1
2023-02-11T05:51:07.590Z,966
2023-02-11T05:52:09.433Z,966
2023-02-11T05:53:11.506Z,966
2023-02-11T05:54:13.530Z,966
2023-02-11T05:55:15.411Z,966
2023-02-11T05:56:17.343Z,966.1
2023-02-11T05:57:19.136Z,966.1
2023-02-11T05:58:20.951Z,966.1
2023-02-11T05:59:22.780Z,966.1
2023-02-11T06:00:24.526Z,966.1
2023-02-11T06:01:26.493Z,966.1
2023-02-11T06:02:28.613Z,966.1
2023-02-11T06:03:30.719Z,966.1
2023-02-11T06:04:32.679Z,966.1
2023-02-11T06:05:34.494Z,966.2
2023-02-11T06:06:36.348Z,966.2
2023-02-11T06:07:38.412Z,966.2
2023-02-11T06:08:40.152Z,966.2
2023-02-11T06:09:42.040Z,966.2
2023-02-11T06:10:44.005Z,966.2
2023-02-11T06:11:45.799Z,966.2
2023-02-11T06:12:47.667Z,966.2
2023-02-11T06:13:49.499Z,966.2
2023-02-11T06:14:51.451Z,966.2
2023-02-11T06:15:54.159Z,966.2
2023-02-11T06:16:55.876Z,966.2
2023-02-11T06:17:57.727Z,966.2
2023-02-11T06:18:59.671Z,966.3
2023-02-11T06:20:01.634Z,966.2
2023-02-11T06:21:03.492Z,966.3
2023-02-11T06:22:05.320Z,966.3
2023-02-11T06:23:07.043Z,966.2
2023-02-11T06:24:08.932Z,966.2
2023-02-11T06:25:10.783Z,966.2
2023-02-11T06:26:12.843Z,966.2
2023-02-11T06:27:14.682Z,966.3
2023-02-11T06:28:16.672Z,966.3
2023-02-11T06:29:18.694Z,966.3
2023-02-11T06:30:20.540Z,966.3
2023-02-11T06:31:22.742Z,966.3
2023-02-11T06:32:46.263Z,966.2
2023-02-11T06:33:48.511Z,966.2
2023-02-11T06:34:50.360Z,966.2
2023-02-11T06:35:55.380Z,966.2
2023-02-11T06:36:57.029Z,966.2
2023-02-11T06:37:58.785Z,966.2
2023-02-11T06:39:00.565Z,966.2
2023-02-11T06:40:02.579Z,966.2
2023-02-11T06:41:04.534Z,966.2
2023-02-11T06:42:08.465Z,966.2
2023-02-11T06:43:10.279Z,966.2
2023-02-11T06:44:12.129Z,966.3
2023-02-11T06:45:13.989Z,966.3
2023-02-11T06:46:15.954Z,966.3
2023-02-11T06:47:17.887Z,966.3
2023-02-11T06:48:19.845Z,966.2
2023-02-11T06:49:21.694Z,966.3
2023-02-11T06:50:23.536Z,966.3
2023-02-11T06:51:25.292Z,966.3
2023-02-11T06:52:27.256Z,966.3
2023-02-11T06:53:29.091Z,966.3
2023-02-11T06:54:30.942Z,966.3
2023-02-11T06:55:32.689Z,966.3
2023-02-11T06:56:34.641Z,966.3
2023-02-11T06:57:36.514Z,966.3
2023-02-11T06:58:38.346Z,966.3
2023-02-11T06:59:40.208Z,966.3
2023-02-11T07:00:42.041Z,966.3
2023-02-11T07:01:44.288Z,966.3
2023-02-11T07:02:46.400Z,966.3
2023-02-11T07:03:48.217Z,966.3
2023-02-11T07:04:50.058Z,966.3
2023-02-11T07:05:53.116Z,966.3
2023-02-11T07:06:55.082Z,966.3
2023-02-11T07:07:56.839Z,966.3
2023-02-11T07:08:58.685Z,966.3
2023-02-11T07:10:00.559Z,966.3
2023-02-11T07:11:02.361Z,966.3
2023-02-11T07:12:04.334Z,966.3
2023-02-11T07:13:06.116Z,966.3
2023-02-11T07:14:07.931Z,966.3
2023-02-11T07:15:09.682Z,966.3
2023-02-11T07:16:11.789Z,966.3
2023-02-11T07:17:13.784Z,966.3
2023-02-11T07:18:15.646Z,966.3
2023-02-11T07:19:17.490Z,966.3
2023-02-11T07:20:19.339Z,966.3
2023-02-11T07:21:21.211Z,966.3
2023-02-11T07:22:23.046Z,966.2
2023-02-11T07:23:25.017Z,966.2
2023-02-11T07:24:26.817Z,966.2
2023-02-11T07:25:28.695Z,966.2
2023-02-11T07:26:30.543Z,966.1
2023-02-11T07:27:32.400Z,966.1
2023-02-11T07:28:37.646Z,966.1
2023-02-11T07:29:39.446Z,966.1
2023-02-11T07:30:41.477Z,966.1
2023-02-11T07:31:43.785Z,966.1
2023-02-11T07:32:45.840Z,966.1
2023-02-11T07:33:47.764Z,966.1
2023-02-11T07:34:49.885Z,966.1
2023-02-11T07:35:52.985Z,966.1
2023-02-11T07:36:55.170Z,966.1
2023-02-11T07:37:57.147Z,966.1
2023-02-11T07:38:58.998Z,966
2023-02-11T07:40:00.847Z,966.1
2023-02-11T07:41:02.804Z,966
2023-02-11T07:42:04.747Z,966
2023-02-11T07:43:06.591Z,966
2023-02-11T07:44:08.577Z,966
2023-02-11T07:45:10.405Z,966
2023-02-11T07:46:12.248Z,966
2023-02-11T07:47:14.094Z,966
2023-02-11T07:48:15.953Z,966
2023-02-11T07:49:17.802Z,966
2023-02-11T07:50:19.639Z,966
2023-02-11T07:51:21.415Z,965.9
2023-02-11T07:52:23.082Z,965.9
2023-02-11T07:53:24.795Z,965.9
2023-02-11T07:54:26.640Z,965.9
2023-02-11T07:55:28.496Z,965.9
2023-02-11T07:56:30.437Z,965.9
2023-02-11T07:57:32.284Z,965.9
2023-02-11T07:58:34.149Z,965.9
2023-02-11T07:59:36.020Z,965.8
2023-02-11T08:00:37.966Z,965.9
2023-02-11T08:01:39.798Z,965.8
2023-02-11T08:02:41.641Z,965.9
2023-02-11T08:03:43.386Z,965.8
2023-02-11T08:04:45.242Z,965.8
2023-02-11T08:05:47.094Z,965.8
2023-02-11T08:06:48.939Z,965.8
2023-02-11T08:07:50.891Z,965.8
2023-02-11T08:08:52.749Z,965.8
2023-02-11T08:09:54.601Z,965.9
2023-02-11T08:10:56.343Z,965.8
2023-02-11T08:11:58.185Z,965.9
2023-02-11T08:13:00.147Z,965.8
2023-02-11T08:14:01.991Z,965.8
2023-02-11T08:15:03.976Z,965.8
2023-02-11T08:16:06.085Z,965.8
2023-02-11T08:17:08.059Z,965.8
2023-02-11T08:18:09.792Z,965.8
2023-02-11T08:19:11.659Z,965.7
2023-02-11T08:20:13.510Z,965.7
2023-02-11T08:21:15.356Z,965.7
2023-02-11T08:22:17.203Z,965.7
2023-02-11T08:23:19.030Z,965.7
2023-02-11T08:24:20.904Z,965.7
2023-02-11T08:25:22.745Z,965.7
2023-02-11T08:26:24.608Z,965.7
2023-02-11T08:27:29.085Z,965.8
2023-02-11T08:28:31.102Z,965.7
2023-02-11T08:29:33.115Z,965.8
2023-02-11T08:30:38.043Z,965.8
2023-02-11T08:31:40.906Z,965.8
2023-02-11T08:32:43.078Z,965.8
2023-02-11T08:33:45.000Z,965.8
2023-02-11T08:34:46.871Z,965.8
2023-02-11T08:35:48.631Z,965.8
2023-02-11T08:36:50.589Z,965.8
2023-02-11T08:37:52.465Z,965.7
2023-02-11T08:39:19.895Z,965.8
2023-02-11T08:40:22.751Z,965.8
2023-02-11T08:41:24.534Z,965.8
2023-02-11T08:42:26.341Z,965.8
2023-02-11T08:43:28.098Z,965.8
2023-02-11T08:44:29.949Z,965.8
2023-02-11T08:45:32.020Z,965.8
2023-02-11T08:46:34.328Z,965.8
2023-02-11T08:47:36.421Z,965.8
2023-02-11T08:48:38.277Z,965.8
2023-02-11T08:49:40.110Z,965.8
2023-02-11T08:50:41.964Z,965.8
2023-02-11T08:51:43.810Z,965.8
2023-02-11T08:52:45.770Z,965.8
2023-02-11T08:53:47.534Z,965.8
2023-02-11T08:54:49.368Z,965.8
2023-02-11T08:55:52.179Z,965.8
2023-02-11T08:56:54.495Z,965.8
2023-02-11T08:57:56.357Z,965.8
2023-02-11T08:58:58.197Z,965.8
2023-02-11T09:00:00.049Z,965.8
2023-02-11T09:01:02.187Z,965.8
2023-02-11T09:02:04.313Z,965.8
2023-02-11T09:03:06.212Z,965.8
2023-02-11T09:04:08.076Z,965.8
2023-02-11T09:05:10.014Z,965.8
2023-02-11T09:06:11.862Z,965.8
2023-02-11T09:07:13.831Z,965.7
2023-02-11T09:08:15.672Z,965.7
2023-02-11T09:09:17.833Z,965.7
2023-02-11T09:10:19.676Z,965.7
2023-02-11T09:11:21.520Z,965.8
2023-02-11T09:12:23.291Z,965.7
2023-02-11T09:13:25.332Z,965.8
2023-02-11T09:14:27.078Z,965.8
2023-02-11T09:15:28.762Z,965.7
2023-02-11T09:16:30.814Z,965.7
2023-02-11T09:17:32.861Z,965.6
2023-02-11T09:18:34.794Z,965.6
2023-02-11T09:19:36.732Z,965.6
2023-02-11T09:20:38.700Z,965.6
2023-02-11T09:21:40.546Z,965.6
2023-02-11T09:22:42.400Z,965.6
2023-02-11T09:23:44.247Z,965.6
2023-02-11T09:24:46.182Z,965.6
2023-02-11T09:25:48.041Z,965.6
2023-02-11T09:26:50.198Z,965.6
2023-02-11T09:27:52.071Z,965.6
2023-02-11T09:28:53.906Z,965.6
2023-02-11T09:29:55.854Z,965.6
2023-02-11T09:31:00.715Z,965.6
2023-02-11T09:32:03.277Z,965.5
2023-02-11T09:33:05.521Z,965.6
2023-02-11T09:34:07.548Z,965.5
2023-02-11T09:35:09.513Z,965.5
2023-02-11T09:36:11.348Z,965.5
2023-02-11T09:37:13.200Z,965.5
2023-02-11T09:38:15.062Z,965.5
2023-02-11T09:39:16.928Z,965.5
2023-02-11T09:40:18.869Z,965.5
2023-02-11T09:41:20.710Z,965.4
2023-02-11T09:42:22.560Z,965.4
2023-02-11T09:43:24.403Z,965.4
2023-02-11T09:44:26.252Z,965.4
2023-02-11T09:45:28.206Z,965.4
2023-02-11T09:46:30.424Z,965.4
2023-02-11T09:47:32.421Z,965.3
2023-02-11T09:48:34.291Z,965.3
2023-02-11T09:49:36.131Z,965.3
2023-02-11T09:50:38.086Z,965.3
2023-02-11T09:51:40.029Z,965.2
2023-02-11T09:52:44.553Z,965.3
2023-02-11T09:53:46.388Z,965.2
2023-02-11T09:54:48.246Z,965.2
2023-02-11T09:55:50.087Z,965.2
2023-02-11T09:56:51.952Z,965.2
2023-02-11T09:57:53.763Z,965.1
2023-02-11T09:58:55.684Z,965.1
2023-02-11T09:59:57.603Z,965.1
2023-02-11T10:00:59.790Z,965.1
2023-02-11T10:02:01.715Z,965.1
2023-02-11T10:03:03.537Z,965
2023-02-11T10:04:05.676Z,965
2023-02-11T10:05:07.670Z,965
2023-02-11T10:06:09.499Z,965
2023-02-11T10:07:11.475Z,965
2023-02-11T10:08:17.410Z,964.9
2023-02-11T10:09:19.260Z,964.9
2023-02-11T10:10:21.420Z,964.9
2023-02-11T10:11:32.788Z,964.9
2023-02-11T10:12:34.638Z,964.9
2023-02-11T10:13:36.489Z,964.8
2023-02-11T10:14:38.349Z,964.9
2023-02-11T10:15:40.244Z,964.8
2023-02-11T10:16:44.712Z,964.8
2023-02-11T10:17:46.755Z,964.8
2023-02-11T10:18:48.622Z,964.7
2023-02-11T10:19:50.484Z,964.7
2023-02-11T10:20:53.227Z,964.7
2023-02-11T10:21:55.364Z,964.7
2023-02-11T10:22:57.203Z,964.6
2023-02-11T10:23:59.094Z,964.6
2023-02-11T10:25:00.834Z,964.6
2023-02-11T10:26:02.792Z,964.6
2023-02-11T10:27:04.636Z,964.5
2023-02-11T10:28:06.592Z,964.5
2023-02-11T10:29:08.254Z,964.5
2023-02-11T10:30:10.092Z,964.4
2023-02-11T10:31:12.331Z,964.4
2023-02-11T10:32:14.445Z,964.4
2023-02-11T10:33:16.349Z,964.4
2023-02-11T10:34:18.199Z,964.3
2023-02-11T10:35:20.067Z,964.3
2023-02-11T10:36:21.896Z,964.3
2023-02-11T10:37:23.764Z,964.2
2023-02-11T10:38:25.731Z,964.2
2023-02-11T10:39:27.558Z,964.2
2023-02-11T10:40:29.415Z,964.2
2023-02-11T10:41:31.210Z,964.2
2023-02-11T10:42:33.014Z,964.1
2023-02-11T10:43:34.968Z,964.1
2023-02-11T10:44:36.825Z,964.1
2023-02-11T10:45:38.639Z,964
2023-02-11T10:46:40.954Z,964
2023-02-11T10:47:42.870Z,964
2023-02-11T10:48:44.822Z,963.9
2023-02-11T10:49:46.689Z,963.9
2023-02-11T10:50:49.340Z,963.9
2023-02-11T10:51:51.815Z,963.9
2023-02-11T10:52:53.653Z,963.9
2023-02-11T10:53:55.401Z,963.8
2023-02-11T10:54:57.370Z,963.8
2023-02-11T10:55:59.202Z,963.8
2023-02-11T10:57:01.055Z,963.8
2023-02-11T10:58:03.032Z,963.8
2023-02-11T10:59:04.871Z,963.7
2023-02-11T11:00:06.713Z,963.7
2023-02-11T11:01:25.259Z,963.7
2023-02-11T11:02:27.211Z,963.7
2023-02-11T11:03:29.145Z,963.7
2023-02-11T11:04:31.356Z,963.6
2023-02-11T11:05:33.371Z,963.6
2023-02-11T11:06:35.274Z,963.6
2023-02-11T11:07:37.103Z,963.6
2023-02-11T11:08:38.956Z,963.6
2023-02-11T11:09:40.768Z,963.6
2023-02-11T11:10:42.618Z,963.6
2023-02-11T11:11:44.464Z,963.6
2023-02-11T11:12:46.424Z,963.6
2023-02-11T11:13:48.264Z,963.6
2023-02-11T11:14:50.013Z,963.6
2023-02-11T11:15:52.096Z,963.6
2023-02-11T11:16:54.019Z,963.6
2023-02-11T11:18:23.122Z,963.6
2023-02-11T11:19:25.468Z,963.6
2023-02-11T11:20:27.368Z,963.5
2023-02-11T11:21:29.277Z,963.5
2023-02-11T11:22:31.153Z,963.5
2023-02-11T11:23:32.955Z,963.5
2023-02-11T11:24:34.829Z,963.5
2023-02-11T11:25:36.690Z,963.5
2023-02-11T11:26:38.518Z,963.5
2023-02-11T11:27:40.378Z,963.5
2023-02-11T11:28:42.135Z,963.5
2023-02-11T11:29:43.900Z,963.5
2023-02-11T11:30:45.953Z,963.5
2023-02-11T11:31:47.949Z,963.5
2023-02-11T11:32:49.934Z,963.5
2023-02-11T11:33:51.779Z,963.5
2023-02-11T11:34:53.754Z,963.4
2023-02-11T11:35:55.515Z,963.4
2023-02-11T11:36:57.322Z,963.4
2023-02-11T11:38:02.595Z,963.4
2023-02-11T11:39:04.425Z,963.4
2023-02-11T11:40:06.369Z,963.4
2023-02-11T11:41:08.306Z,963.3
2023-02-11T11:42:10.156Z,963.3
2023-02-11T11:43:12.040Z,963.3
2023-02-11T11:44:13.686Z,963.3
2023-02-11T11:45:15.481Z,963.3
2023-02-11T11:46:17.639Z,963.3
2023-02-11T11:47:19.515Z,963.3
2023-02-11T11:48:21.475Z,963.3
2023-02-11T11:49:23.325Z,963.3
2023-02-11T11:50:25.053Z,963.2
2023-02-11T11:51:26.813Z,963.2
2023-02-11T11:52:28.778Z,963.2
2023-02-11T11:53:30.739Z,963.3
2023-02-11T11:54:32.548Z,963.2
2023-02-11T11:55:34.412Z,963.2
2023-02-11T11:56:36.275Z,963.1
2023-02-11T11:57:38.110Z,963.2
2023-02-11T11:58:40.022Z,963.1
2023-02-11T11:59:42.117Z,963.1
2023-02-11T12:00:43.963Z,963.1
2023-02-11T12:01:46.002Z,963.1
2023-02-11T12:02:48.101Z,963.1
2023-02-11T12:03:49.938Z,963.1
2023-02-11T12:04:51.879Z,963
2023-02-11T12:05:53.634Z,963
2023-02-11T12:06:55.584Z,963
2023-02-11T12:07:57.430Z,962.9
2023-02-11T12:08:59.414Z,963
2023-02-11T12:10:01.232Z,962.9
2023-02-11T12:11:03.083Z,962.9
2023-02-11T12:12:04.853Z,962.9
2023-02-11T12:13:06.576Z,962.9
2023-02-11T12:14:08.430Z,962.9
2023-02-11T12:15:10.313Z,962.9
2023-02-11T12:16:13.805Z,962.9
2023-02-11T12:17:15.819Z,962.8
2023-02-11T12:18:17.682Z,962.8
2023-02-11T12:19:19.631Z,962.8
2023-02-11T12:20:21.584Z,962.8
2023-02-11T12:21:23.529Z,962.7
2023-02-11T12:22:25.377Z,962.8
2023-02-11T12:23:27.233Z,962.8
2023-02-11T12:24:29.320Z,962.8
2023-02-11T12:25:31.235Z,962.8
2023-02-11T12:26:33.085Z,962.7
2023-02-11T12:27:34.942Z,962.7
2023-02-11T12:28:36.918Z,962.6
2023-02-11T12:29:38.949Z,962.6
2023-02-11T12:30:41.023Z,962.6
2023-02-11T12:31:42.975Z,962.6
2023-02-11T12:32:44.800Z,962.6
2023-02-11T12:33:46.631Z,962.5
2023-02-11T12:34:48.501Z,962.5
2023-02-11T12:35:50.365Z,962.4
2023-02-11T12:36:52.401Z,962.4
2023-02-11T12:37:54.153Z,962.4
2023-02-11T12:38:56.002Z,962.4
2023-02-11T12:39:57.981Z,962.4
2023-02-11T12:40:59.815Z,962.4
2023-02-11T12:42:01.662Z,962.4
2023-02-11T12:43:03.505Z,962.4
2023-02-11T12:44:05.352Z,962.5
2023-02-11T12:45:07.178Z,962.4
2023-02-11T12:46:09.228Z,962.4
2023-02-11T12:47:11.212Z,962.4
2023-02-11T12:48:13.078Z,962.4
2023-02-11T12:49:14.888Z,962.4
2023-02-11T12:50:16.880Z,962.4
2023-02-11T12:51:18.725Z,962.4
2023-02-11T12:52:20.568Z,962.4
2023-02-11T12:53:22.431Z,962.3
2023-02-11T12:54:24.261Z,962.3
2023-02-11T12:55:26.138Z,962.4
2023-02-11T12:56:27.977Z,962.3
2023-02-11T12:57:29.708Z,962.3
2023-02-11T12:58:46.113Z,962.3
2023-02-11T12:59:47.980Z,962.2
2023-02-11T13:00:51.176Z,962.3
2023-02-11T13:01:53.765Z,962.2
2023-02-11T13:02:55.662Z,962.3
2023-02-11T13:03:57.421Z,962.2
2023-02-11T13:04:59.259Z,962.2
2023-02-11T13:06:01.220Z,962.2
2023-02-11T13:07:03.052Z,962.2
2023-02-11T13:08:04.924Z,962.2
2023-02-11T13:09:06.658Z,962.2
2023-02-11T13:10:08.503Z,962.2
2023-02-11T13:11:14.781Z,962.2
2023-02-11T13:12:16.612Z,962.2
2023-02-11T13:13:18.554Z,962.1
2023-02-11T13:14:20.309Z,962.2
2023-02-11T13:15:22.158Z,962.1
2023-02-11T13:16:24.362Z,962.1
2023-02-11T13:17:26.174Z,962.1
2023-02-11T13:18:28.033Z,962.1
2023-02-11T13:19:32.532Z,962.1
2023-02-11T13:20:34.296Z,962.1
2023-02-11T13:21:36.229Z,962.1
2023-02-11T13:22:38.041Z,962.1
2023-02-11T13:23:39.907Z,962.1
2023-02-11T13:24:41.788Z,962.1